Terminal Aerodrome Forecast
Issued by NWS Raleigh/Durham, NC

Home | Current Version | Previous Version | Text Only | Print | Product List | Glossary On
Versions: 1 2 3 4 5 6 7 8 9 10 11 12 13 14 15 16 17 18 19
000
FTUS42 KRAH 192323
TAFFAY
TAF
KFAY 192323Z 2000/2024 03011KT 6SM -RA BR SCT007 BKN012
      TEMPO 2000/2002 2SM RA BR BKN007
     FM200600 02012G22KT P6SM OVC015
     FM202100 03012KT P6SM SCT040 BKN200=

USA.gov is the U.S. government's official web portal to all federal, state and local government web resources and services.